Time;durP1;ratioP1;P1;durP2;ratioP2;P2;SDS_P1;SDS_P2;PMS_P1;PMS_P2;Temp;Humidity;BMP_temperature;BMP_pressure;BME280_temperature;BME280_humidity;BME280_pressure;Samples;Min_cycle;Max_cycle;Signal;HPM_P1;HPM_P2
2024/02/09 00:00:40;;;;;;;14.73;7.37;;;2.70;99.90;;;;;;4412347;28;658441;-75
2024/02/09 00:03:28;;;;;;;11.33;6.50;;;2.70;99.90;;;;;;4405459;28;657812;-74
2024/02/09 00:06:15;;;;;;;18.43;8.70;;;2.70;99.90;;;;;;4431084;28;658175;-74
2024/02/09 00:09:03;;;;;;;12.90;6.73;;;2.70;99.90;;;;;;4420003;28;658213;-75
2024/02/09 00:11:52;;;;;;;11.07;5.97;;;2.70;99.90;;;;;;4439420;28;657666;-74
2024/02/09 00:14:42;;;;;;;13.73;6.20;;;2.70;99.90;;;;;;4409317;28;657974;-74
2024/02/09 00:17:32;;;;;;;9.65;4.93;;;2.70;99.90;;;;;;4411747;28;657924;-74
2024/02/09 00:20:20;;;;;;;10.73;5.17;;;2.70;99.90;;;;;;4411691;28;656823;-75
2024/02/09 00:23:09;;;;;;;9.33;5.27;;;2.70;99.90;;;;;;4419120;28;657875;-74
2024/02/09 00:25:56;;;;;;;8.40;5.03;;;2.80;99.90;;;;;;4439331;28;656687;-74
2024/02/09 00:28:44;;;;;;;9.63;5.57;;;2.80;99.90;;;;;;4415294;28;656255;-74
2024/02/09 00:31:32;;;;;;;14.63;6.33;;;2.70;99.90;;;;;;4429067;28;656484;-74
2024/02/09 00:34:19;;;;;;;13.03;6.67;;;2.80;99.90;;;;;;4408195;28;658412;-74
2024/02/09 00:37:07;;;;;;;23.33;9.93;;;2.80;99.90;;;;;;4417961;28;657910;-74
2024/02/09 00:39:54;;;;;;;27.27;10.07;;;2.90;99.90;;;;;;4409057;28;657683;-74
2024/02/09 00:42:43;;;;;;;22.77;8.43;;;3.00;99.90;;;;;;4436451;28;658713;-74
2024/02/09 00:45:34;;;;;;;15.13;7.00;;;2.90;99.90;;;;;;4411064;28;658035;-74
2024/02/09 00:48:21;;;;;;;14.33;6.83;;;2.90;99.90;;;;;;4417813;28;658114;-74
2024/02/09 00:51:08;;;;;;;15.33;6.63;;;3.00;99.90;;;;;;4408136;28;657548;-75
2024/02/09 00:53:55;;;;;;;12.53;6.63;;;2.80;99.90;;;;;;4434722;28;657960;-75
2024/02/09 00:56:42;;;;;;;67.90;22.00;;;2.90;99.90;;;;;;4403880;28;657457;-75
2024/02/09 00:59:30;;;;;;;23.00;10.00;;;2.90;99.90;;;;;;4421761;28;659088;-75
2024/02/09 01:02:19;;;;;;;15.57;8.20;;;3.00;99.90;;;;;;4417343;28;659091;-75
2024/02/09 01:05:07;;;;;;;17.60;9.07;;;3.10;99.90;;;;;;4392437;28;657792;-75
2024/02/09 01:07:54;;;;;;;19.20;9.40;;;3.10;99.90;;;;;;4405885;28;659561;-75
2024/02/09 01:10:43;;;;;;;20.33;10.00;;;3.10;99.90;;;;;;4433279;28;657558;-75
2024/02/09 02:45:51;;;;;;;15.30;8.47;;;3.20;99.90;;;;;;4396984;28;657339;-75
2024/02/09 03:04:22;;;;;;;22.07;10.20;;;3.10;99.90;;;;;;4395926;28;658177;-75
2024/02/09 03:07:10;;;;;;;18.53;9.70;;;3.00;99.90;;;;;;4391361;28;659803;-75
2024/02/09 03:10:01;;;;;;;18.40;9.43;;;3.00;99.90;;;;;;4413550;28;657678;-75
2024/02/09 03:12:48;;;;;;;19.83;9.67;;;2.90;99.90;;;;;;4402814;28;657687;-75
2024/02/09 03:15:35;;;;;;;20.83;9.57;;;3.00;99.90;;;;;;4404546;28;657631;-75
2024/02/09 03:18:24;;;;;;;18.03;9.43;;;3.00;99.90;;;;;;4388075;28;658152;-75
2024/02/09 03:21:20;;;;;;;15.90;9.23;;;2.90;99.90;;;;;;4422949;28;658526;-75
2024/02/09 03:24:07;;;;;;;20.03;9.80;;;2.90;99.90;;;;;;4397261;28;657437;-76
2024/02/09 03:26:56;;;;;;;18.30;9.37;;;2.90;99.90;;;;;;4390085;28;658554;-76
2024/02/09 03:29:43;;;;;;;17.30;8.90;;;2.90;99.90;;;;;;4400455;28;657890;-75
2024/02/09 03:32:30;;;;;;;14.63;8.80;;;2.90;99.90;;;;;;4410483;28;658295;-76
2024/02/09 03:35:18;;;;;;;19.77;8.97;;;2.80;99.90;;;;;;4392637;28;657896;-76
2024/02/09 03:38:05;;;;;;;14.80;8.73;;;2.80;99.90;;;;;;4421050;28;658866;-75
2024/02/09 03:40:52;;;;;;;11.88;7.13;;;2.70;99.90;;;;;;4407015;28;657992;-75
2024/02/09 03:43:41;;;;;;;15.80;8.77;;;2.70;99.90;;;;;;4396624;28;657795;-75
2024/02/09 03:46:28;;;;;;;13.50;7.50;;;2.60;99.90;;;;;;4399357;28;657364;-75
2024/02/09 03:49:15;;;;;;;15.00;7.50;;;2.60;99.90;;;;;;4425672;28;658037;-75
2024/02/09 03:52:05;;;;;;;16.77;8.83;;;2.50;99.90;;;;;;4377660;28;658093;-75
2024/02/09 03:54:53;;;;;;;20.97;10.17;;;2.40;99.90;;;;;;4400134;28;657821;-75
2024/02/09 03:57:40;;;;;;;20.53;10.87;;;2.40;99.90;;;;;;4416199;28;658883;-75
2024/02/09 04:00:29;;;;;;;23.30;11.17;;;2.40;99.90;;;;;;4390145;28;658404;-75
2024/02/09 04:03:17;;;;;;;19.20;9.53;;;2.30;99.90;;;;;;4408599;28;658025;-76
2024/02/09 04:06:06;;;;;;;24.67;11.43;;;2.30;99.90;;;;;;4382481;28;657328;-75
2024/02/09 04:08:54;;;;;;;23.80;10.70;;;2.20;99.90;;;;;;4383810;28;659535;-75
2024/02/09 04:11:41;;;;;;;21.53;10.27;;;2.20;99.90;;;;;;4417997;28;658457;-76
2024/02/09 04:14:29;;;;;;;21.63;9.70;;;2.30;99.90;;;;;;4392692;28;658360;-75
2024/02/09 04:17:17;;;;;;;22.07;10.43;;;2.20;99.90;;;;;;4415288;28;658580;-75
2024/02/09 04:20:06;;;;;;;29.48;11.93;;;2.20;99.90;;;;;;4389529;28;658671;-75
2024/02/09 04:22:53;;;;;;;25.87;11.50;;;2.20;99.90;;;;;;4390777;28;659001;-76
2024/02/09 04:25:40;;;;;;;24.60;11.33;;;2.10;99.90;;;;;;4404297;28;658745;-76
2024/02/09 04:28:28;;;;;;;24.77;11.67;;;2.20;99.90;;;;;;4396610;28;659211;-75
2024/02/09 04:31:15;;;;;;;16.67;7.83;;;2.10;99.90;;;;;;4394362;28;659686;-76
2024/02/09 04:34:04;;;;;;;68.25;13.75;;;2.10;99.90;;;;;;4392772;28;657350;-75
2024/02/09 04:36:55;;;;;;;27.40;12.17;;;2.10;99.90;;;;;;4424001;28;659476;-76
2024/02/09 04:39:42;;;;;;;26.83;11.13;;;2.10;99.90;;;;;;4372531;28;658890;-76
2024/02/09 04:42:30;;;;;;;24.67;10.77;;;2.10;99.90;;;;;;4413214;28;660007;-75
2024/02/09 04:45:17;;;;;;;22.67;11.37;;;2.10;99.90;;;;;;4414764;28;658869;-76
2024/02/09 04:48:05;;;;;;;19.47;10.60;;;2.00;99.90;;;;;;4378459;28;659951;-76
2024/02/09 04:50:55;;;;;;;21.97;10.43;;;2.00;99.90;;;;;;4405958;28;659094;-75
2024/02/09 04:53:42;;;;;;;19.40;9.00;;;2.00;99.90;;;;;;4411914;28;658430;-75
2024/02/09 04:56:32;;;;;;;23.43;10.57;;;2.10;99.90;;;;;;4426488;28;657983;-75
2024/02/09 04:59:19;;;;;;;25.07;12.07;;;2.00;99.90;;;;;;4399221;28;658921;-76
2024/02/09 05:02:06;;;;;;;23.03;11.63;;;2.00;99.90;;;;;;4415499;28;658172;-76
2024/02/09 05:04:53;;;;;;;30.00;12.90;;;2.00;99.90;;;;;;4375137;28;658684;-75
2024/02/09 05:07:42;;;;;;;36.73;15.20;;;2.00;99.90;;;;;;4409270;28;660028;-76
2024/02/09 05:10:29;;;;;;;31.17;14.10;;;2.10;99.90;;;;;;4388458;28;659152;-76
2024/02/09 05:13:16;;;;;;;31.17;13.93;;;2.00;99.90;;;;;;4415679;28;658073;-75
2024/02/09 05:16:04;;;;;;;28.27;12.87;;;2.00;99.90;;;;;;4382921;28;658716;-76
2024/02/09 05:18:51;;;;;;;61.33;19.73;;;2.00;99.90;;;;;;4419560;28;658790;-76
2024/02/09 05:21:39;;;;;;;30.35;11.68;;;2.10;99.90;;;;;;4394615;28;658736;-76
2024/02/09 05:24:27;;;;;;;23.53;10.43;;;2.10;99.90;;;;;;4413461;28;658271;-76
2024/02/09 05:27:15;;;;;;;52.83;21.47;;;2.10;99.90;;;;;;4389234;28;659124;-75
2024/02/09 05:30:03;;;;;;;52.37;24.77;;;2.10;99.90;;;;;;4406996;28;659059;-75
2024/02/09 05:32:50;;;;;;;21.10;10.13;;;2.10;99.90;;;;;;4410360;28;659418;-76
2024/02/09 05:35:38;;;;;;;25.23;11.87;;;2.10;99.90;;;;;;4398713;28;658976;-75
2024/02/09 05:38:25;;;;;;;23.37;11.60;;;2.10;99.90;;;;;;4419911;28;658778;-75
2024/02/09 05:41:15;;;;;;;21.80;11.13;;;2.20;99.90;;;;;;4379022;28;659141;-76
2024/02/09 05:44:02;;;;;;;28.93;13.23;;;2.20;99.90;;;;;;4432160;28;658468;-75
2024/02/09 05:46:50;;;;;;;32.93;16.63;;;2.20;99.90;;;;;;4427313;28;659304;-76
2024/02/09 05:49:38;;;;;;;26.30;11.93;;;2.20;99.90;;;;;;4410769;28;658301;-75
2024/02/09 05:52:26;;;;;;;21.73;11.10;;;2.20;99.90;;;;;;4428936;28;658830;-75
2024/02/09 05:55:13;;;;;;;38.77;16.20;;;2.30;99.90;;;;;;4410646;28;658951;-74
2024/02/09 05:58:01;;;;;;;22.60;11.33;;;2.20;99.90;;;;;;4421827;28;659252;-75
2024/02/09 06:00:52;;;;;;;32.67;14.40;;;2.20;99.90;;;;;;4408228;28;658718;-75
2024/02/09 06:03:39;;;;;;;29.77;13.57;;;2.20;99.90;;;;;;4410335;28;659724;-75
2024/02/09 06:06:27;;;;;;;20.00;10.97;;;2.30;99.90;;;;;;4427855;28;658615;-75
2024/02/09 06:09:14;;;;;;;32.07;13.77;;;2.30;99.90;;;;;;4410481;28;659774;-75
2024/02/09 06:12:01;;;;;;;53.50;15.10;;;2.40;99.90;;;;;;4416975;28;658536;-75
2024/02/09 06:14:59;;;;;;;50.57;14.73;;;2.40;99.90;;;;;;4391999;28;658897;-74
2024/02/09 06:17:47;;;;;;;24.13;10.93;;;2.50;99.90;;;;;;4415317;28;658801;-75
2024/02/09 06:20:34;;;;;;;21.60;10.67;;;2.50;99.90;;;;;;4410118;28;658758;-74
2024/02/09 06:23:23;;;;;;;24.40;12.27;;;2.50;99.90;;;;;;4431144;28;659049;-75
2024/02/09 06:26:10;;;;;;;29.97;12.90;;;2.50;99.90;;;;;;4391664;28;659349;-75
2024/02/09 06:28:57;;;;;;;38.70;14.47;;;2.50;99.90;;;;;;4410808;28;658693;-75
2024/02/09 06:31:46;;;;;;;26.93;12.50;;;2.60;99.90;;;;;;4436567;28;659287;-75
2024/02/09 06:34:34;;;;;;;34.80;15.10;;;2.60;99.90;;;;;;4421366;28;659177;-74
2024/02/09 06:37:22;;;;;;;35.40;14.07;;;2.60;99.90;;;;;;4442766;28;659740;-75
2024/02/09 06:40:13;;;;;;;31.05;14.18;;;2.60;99.90;;;;;;4413571;28;659176;-75
2024/02/09 06:43:01;;;;;;;28.92;13.90;;;2.70;99.90;;;;;;4416663;28;659292;-74
2024/02/09 06:45:48;;;;;;;28.60;13.63;;;2.70;99.90;;;;;;4417689;28;658701;-74
2024/02/09 06:48:37;;;;;;;27.23;14.10;;;2.60;99.90;;;;;;4435561;28;659513;-74
2024/02/09 06:51:24;;;;;;;36.73;16.00;;;2.70;99.90;;;;;;4399959;28;660046;-74
2024/02/09 06:54:11;;;;;;;31.23;15.27;;;2.70;99.90;;;;;;4439333;28;658189;-74
2024/02/09 06:56:59;;;;;;;37.13;16.65;;;2.70;99.90;;;;;;4425282;28;658968;-74
2024/02/09 06:59:46;;;;;;;35.67;16.23;;;2.80;99.90;;;;;;4443684;28;658660;-74
2024/02/09 07:02:34;;;;;;;41.90;18.23;;;2.80;99.90;;;;;;4417523;28;659097;-74
2024/02/09 07:05:23;;;;;;;37.00;16.60;;;2.90;99.90;;;;;;4435055;28;658523;-74
2024/02/09 07:08:11;;;;;;;63.37;25.27;;;3.00;99.90;;;;;;4418132;28;658545;-74
2024/02/09 07:10:59;;;;;;;41.10;17.20;;;3.10;99.90;;;;;;4418707;28;658423;-74
2024/02/09 07:13:47;;;;;;;31.80;15.63;;;3.20;99.90;;;;;;4436467;28;659230;-74
2024/02/09 07:16:34;;;;;;;31.63;15.43;;;3.30;99.90;;;;;;4410267;28;659591;-74
2024/02/09 07:19:21;;;;;;;32.43;15.57;;;3.30;99.90;;;;;;4440101;28;658847;-75
2024/02/09 07:22:12;;;;;;;33.57;14.70;;;3.40;99.90;;;;;;4413750;28;658952;-75
2024/02/09 07:24:59;;;;;;;36.33;16.47;;;3.50;99.90;;;;;;4416326;28;658824;-74
2024/02/09 07:27:47;;;;;;;44.70;19.07;;;3.60;99.90;;;;;;4437897;28;658865;-74
2024/02/09 07:30:34;;;;;;;39.60;19.53;;;3.70;99.90;;;;;;4416475;28;659570;-74
2024/02/09 07:33:21;;;;;;;46.97;21.67;;;3.80;99.90;;;;;;4433543;28;658732;-74
2024/02/09 07:36:10;;;;;;;50.23;21.90;;;3.80;99.90;;;;;;4411218;28;658594;-75
2024/02/09 07:38:59;;;;;;;44.23;21.03;;;3.90;99.90;;;;;;4429683;28;659019;-75
2024/02/09 07:41:46;;;;;;;50.63;22.67;;;4.00;99.90;;;;;;4430899;28;658114;-75
2024/02/09 07:44:34;;;;;;;62.67;24.83;;;4.10;99.90;;;;;;4416647;28;658602;-75
2024/02/09 07:47:21;;;;;;;61.00;25.40;;;4.10;99.90;;;;;;4440048;28;658343;-75
2024/02/09 07:50:09;;;;;;;65.80;27.75;;;4.20;99.90;;;;;;4423257;28;658580;-74
2024/02/09 07:52:57;;;;;;;55.90;28.53;;;4.20;99.90;;;;;;4431691;28;658662;-74
2024/02/09 07:55:45;;;;;;;67.33;31.03;;;4.20;99.90;;;;;;4417543;28;658540;-74
2024/02/09 07:58:33;;;;;;;74.60;32.50;;;4.20;99.90;;;;;;4419702;28;659734;-74
2024/02/09 08:01:21;;;;;;;68.50;31.00;;;4.30;99.90;;;;;;4419397;28;658989;-75
2024/02/09 08:04:08;;;;;;;47.80;24.27;;;4.30;99.90;;;;;;4415691;28;659295;-74
2024/02/09 08:06:56;;;;;;;71.37;32.17;;;4.40;99.90;;;;;;4438891;28;658657;-75
2024/02/09 08:09:44;;;;;;;52.23;25.70;;;4.50;99.90;;;;;;4413998;28;658899;-75
2024/02/09 08:12:33;;;;;;;57.80;24.77;;;4.60;99.90;;;;;;4440270;28;658912;-75
2024/02/09 08:15:20;;;;;;;46.70;20.27;;;4.60;99.90;;;;;;4410733;28;659860;-75
2024/02/09 08:18:08;;;;;;;45.87;20.53;;;4.70;99.90;;;;;;4427635;28;659336;-75
2024/02/09 08:20:55;;;;;;;46.10;21.67;;;4.70;99.90;;;;;;4430665;28;659986;-75
2024/02/09 08:23:42;;;;;;;44.97;20.60;;;4.80;99.90;;;;;;4436952;28;658566;-74
2024/02/09 08:26:30;;;;;;;43.60;19.87;;;4.90;99.90;;;;;;4431767;28;659064;-75
2024/02/09 08:29:18;;;;;;;47.20;22.67;;;4.90;99.90;;;;;;4423309;28;658272;-75
2024/02/09 08:32:06;;;;;;;56.63;25.27;;;5.00;99.90;;;;;;4415847;28;659093;-75
2024/02/09 08:34:54;;;;;;;55.37;25.63;;;5.20;99.90;;;;;;4403469;28;658561;-75
2024/02/09 08:37:41;;;;;;;58.63;26.33;;;5.20;99.90;;;;;;4436928;28;658696;-74
2024/02/09 08:40:28;;;;;;;56.57;26.03;;;5.40;99.90;;;;;;4417771;28;658581;-75
2024/02/09 08:43:15;;;;;;;48.47;22.17;;;5.60;99.90;;;;;;4437327;28;658898;-75
2024/02/09 08:46:04;;;;;;;41.90;20.90;;;5.70;99.90;;;;;;4413294;28;658654;-74
2024/02/09 08:48:52;;;;;;;45.90;23.13;;;5.80;99.90;;;;;;4431816;28;658822;-75
2024/02/09 08:51:40;;;;;;;42.80;21.67;;;5.90;99.90;;;;;;4415482;28;659047;-74
2024/02/09 08:54:29;;;;;;;42.77;19.50;;;6.00;99.90;;;;;;4423922;28;658682;-74
2024/02/09 08:57:18;;;;;;;39.87;18.10;;;6.20;99.90;;;;;;4438201;28;658692;-74
2024/02/09 09:00:07;;;;;;;36.40;16.77;;;6.30;99.90;;;;;;4407483;28;659302;-74
2024/02/09 09:02:55;;;;;;;39.40;16.97;;;6.40;99.90;;;;;;4412232;28;660132;-74
2024/02/09 09:05:47;;;;;;;40.47;19.20;;;6.50;99.90;;;;;;4415648;28;658991;-74
2024/02/09 09:08:34;;;;;;;43.07;20.30;;;6.60;99.90;;;;;;4425432;28;659557;-74
2024/02/09 09:11:22;;;;;;;38.00;19.20;;;6.70;99.90;;;;;;4434539;28;658755;-74
2024/02/09 09:14:10;;;;;;;40.07;19.83;;;6.70;99.90;;;;;;4417599;28;658777;-74
2024/02/09 09:16:57;;;;;;;47.70;21.33;;;6.70;99.90;;;;;;4413515;28;658428;-74
2024/02/09 09:19:46;;;;;;;45.83;19.47;;;6.70;99.90;;;;;;4437494;28;658887;-74
2024/02/09 09:22:33;;;;;;;55.67;24.57;;;6.70;99.90;;;;;;4419375;28;658438;-74
2024/02/09 09:25:21;;;;;;;52.80;24.60;;;6.70;99.90;;;;;;4424289;28;659506;-74
2024/02/09 09:28:08;;;;;;;57.10;28.23;;;6.70;99.90;;;;;;4413023;28;659514;-74
2024/02/09 09:30:55;;;;;;;87.30;39.10;;;6.70;99.90;;;;;;4430189;28;659571;-74
2024/02/09 09:33:42;;;;;;;81.53;36.88;;;6.50;99.90;;;;;;4411815;28;658380;-74
2024/02/09 09:36:33;;;;;;;68.00;31.43;;;6.50;99.90;;;;;;4432597;28;660304;-74
2024/02/09 09:39:20;;;;;;;62.67;27.83;;;6.50;99.90;;;;;;4413383;28;658919;-74
2024/02/09 09:42:07;;;;;;;57.60;26.10;;;6.50;99.90;;;;;;4410086;28;658817;-74
2024/02/09 09:44:55;;;;;;;66.77;29.13;;;6.50;99.90;;;;;;4437953;28;659683;-74
2024/02/09 09:47:43;;;;;;;80.00;32.37;;;6.60;99.90;;;;;;4431880;28;659124;-74
2024/02/09 09:50:30;;;;;;;89.10;36.17;;;6.60;99.90;;;;;;4429528;28;659601;-74
2024/02/09 09:53:21;;;;;;;84.47;35.80;;;6.70;99.90;;;;;;4422865;28;659114;-74
2024/02/09 09:56:08;;;;;;;94.20;36.40;;;6.70;99.90;;;;;;4391952;28;658833;-74
2024/02/09 09:58:55;;;;;;;82.00;35.47;;;6.90;99.90;;;;;;4420848;28;659914;-74
2024/02/09 10:01:43;;;;;;;75.90;34.30;;;6.80;99.90;;;;;;4403656;28;659185;-74
2024/02/09 10:04:30;;;;;;;74.40;36.30;;;7.00;99.90;;;;;;4430866;28;659733;-74
2024/02/09 10:07:19;;;;;;;86.93;37.93;;;7.20;99.90;;;;;;4423531;28;660123;-74
2024/02/09 10:10:09;;;;;;;77.35;36.15;;;7.40;99.90;;;;;;4427359;28;658793;-74
2024/02/09 10:13:04;;;;;;;71.47;33.13;;;7.70;99.90;;;;;;4399111;28;659246;-74
2024/02/09 10:15:52;;;;;;;71.33;32.47;;;7.80;99.90;;;;;;4407520;28;659020;-74
2024/02/09 10:18:40;;;;;;;57.30;27.03;;;8.00;99.90;;;;;;4418258;28;658890;-74
2024/02/09 10:21:27;;;;;;;57.70;27.00;;;8.10;99.90;;;;;;4424250;28;658767;-74
2024/02/09 10:24:16;;;;;;;47.70;21.97;;;8.40;99.90;;;;;;4414606;28;659280;-74
2024/02/09 10:27:05;;;;;;;48.40;18.47;;;8.70;99.90;;;;;;4414211;28;658629;-74
2024/02/09 10:29:53;;;;;;;42.50;17.25;;;9.00;99.90;;;;;;4415320;28;659133;-74
2024/02/09 10:32:41;;;;;;;39.30;18.83;;;9.20;99.90;;;;;;4423372;28;659683;-74
2024/02/09 10:35:28;;;;;;;46.33;19.93;;;9.20;99.90;;;;;;4402060;28;659453;-74
2024/02/09 10:38:15;;;;;;;49.27;19.30;;;9.50;99.90;;;;;;4431325;28;659639;-73
2024/02/09 10:41:03;;;;;;;39.27;19.20;;;9.50;99.90;;;;;;4407507;28;659108;-74
2024/02/09 10:43:52;;;;;;;40.60;16.65;;;9.40;99.90;;;;;;4428959;28;659690;-74
2024/02/09 10:46:40;;;;;;;33.17;14.57;;;9.40;99.90;;;;;;4402838;28;658696;-74
2024/02/09 10:49:29;;;;;;;37.00;16.03;;;9.60;99.90;;;;;;4415984;28;659556;-74
2024/02/09 10:52:17;;;;;;;41.20;15.93;;;9.60;99.90;;;;;;4427848;28;658765;-74
2024/02/09 10:55:07;;;;;;;41.77;14.80;;;9.30;99.90;;;;;;4409556;28;658967;-74
2024/02/09 10:57:54;;;;;;;39.17;14.57;;;9.50;99.90;;;;;;4407097;28;658910;-74
2024/02/09 11:00:43;;;;;;;39.00;14.73;;;9.30;99.90;;;;;;4434780;28;658029;-74
2024/02/09 11:03:30;;;;;;;37.00;16.43;;;9.30;99.90;;;;;;4402337;28;658980;-74
2024/02/09 11:06:17;;;;;;;37.70;16.60;;;9.20;99.90;;;;;;4417607;28;659060;-74
2024/02/09 11:09:05;;;;;;;38.23;15.47;;;9.20;99.90;;;;;;4432407;28;659419;-74
2024/02/09 11:11:53;;;;;;;33.90;15.30;;;9.30;99.90;;;;;;4420864;28;659131;-74
2024/02/09 11:14:44;;;;;;;36.67;15.80;;;9.20;99.90;;;;;;4430639;28;659550;-74
2024/02/09 11:17:32;;;;;;;40.00;18.03;;;9.30;99.90;;;;;;4417579;28;658193;-74
2024/02/09 11:20:20;;;;;;;48.57;19.93;;;9.40;99.90;;;;;;4404990;28;659343;-75
2024/02/09 11:23:07;;;;;;;40.70;17.77;;;9.60;99.90;;;;;;4428474;28;658521;-74
2024/02/09 11:25:58;;;;;;;38.80;17.13;;;9.50;99.90;;;;;;4426955;28;659483;-75
2024/02/09 11:28:45;;;;;;;37.80;17.23;;;9.50;99.90;;;;;;4408304;28;659222;-74
2024/02/09 11:31:33;;;;;;;58.17;18.73;;;9.60;99.90;;;;;;4402709;28;658668;-74
2024/02/09 11:34:22;;;;;;;47.87;18.47;;;9.60;99.90;;;;;;4417815;28;660325;-74
2024/02/09 11:37:09;;;;;;;47.97;17.07;;;9.50;99.90;;;;;;4407936;28;660200;-74
2024/02/09 11:39:58;;;;;;;47.67;17.87;;;9.60;99.90;;;;;;4421021;28;658976;-75
2024/02/09 11:42:45;;;;;;;42.07;17.33;;;9.70;99.90;;;;;;4420692;28;660329;-74
2024/02/09 11:45:33;;;;;;;38.07;16.83;;;9.80;99.90;;;;;;4419614;28;658952;-75
2024/02/09 11:48:21;;;;;;;49.20;18.17;;;9.80;99.90;;;;;;4430622;28;658790;-75
2024/02/09 11:51:10;;;;;;;45.57;17.80;;;9.90;99.90;;;;;;4408083;28;659056;-75
2024/02/09 11:53:57;;;;;;;44.47;17.60;;;10.20;99.90;;;;;;4432586;28;658702;-75
2024/02/09 11:56:45;;;;;;;41.37;16.37;;;10.30;99.90;;;;;;4437919;28;661129;-75
2024/02/09 11:59:32;;;;;;;40.63;15.77;;;10.50;99.90;;;;;;4411982;28;660095;-75
2024/02/09 12:02:20;;;;;;;32.50;13.67;;;10.70;99.90;;;;;;4434212;28;660946;-74
2024/02/09 12:05:08;;;;;;;41.57;16.50;;;10.60;99.90;;;;;;4432778;28;659407;-75
2024/02/09 12:07:57;;;;;;;44.73;18.90;;;10.50;99.90;;;;;;4443675;28;659856;-74
2024/02/09 12:10:44;;;;;;;50.90;18.23;;;10.50;99.90;;;;;;4407086;28;660794;-75
2024/02/09 12:13:31;;;;;;;44.87;18.90;;;10.50;99.90;;;;;;4434302;28;660237;-75
2024/02/09 12:16:18;;;;;;;35.27;15.77;;;10.40;99.90;;;;;;4404134;28;660696;-75
2024/02/09 12:19:06;;;;;;;37.23;16.70;;;10.50;99.90;;;;;;4434744;28;659926;-75
2024/02/09 12:21:53;;;;;;;49.27;16.57;;;10.50;99.90;;;;;;4417181;28;660089;-75
2024/02/09 12:24:44;;;;;;;47.83;17.90;;;10.50;99.90;;;;;;4434723;28;660953;-74
2024/02/09 12:27:32;;;;;;;45.30;20.83;;;10.50;99.90;;;;;;4407903;28;659864;-75
2024/02/09 12:30:20;;;;;;;55.90;24.07;;;10.40;99.90;;;;;;4398623;28;660335;-75
2024/02/09 12:33:07;;;;;;;52.93;25.30;;;10.30;99.90;;;;;;4404659;28;659592;-74
2024/02/09 12:35:56;;;;;;;48.47;23.03;;;10.30;99.90;;;;;;4418348;28;660249;-75
2024/02/09 12:38:43;;;;;;;47.40;21.03;;;10.20;99.90;;;;;;4409294;28;659915;-74
2024/02/09 12:41:31;;;;;;;49.23;21.53;;;10.10;99.90;;;;;;4436134;28;660343;-74
2024/02/09 12:44:19;;;;;;;45.20;21.83;;;9.90;99.90;;;;;;4413046;28;660871;-75
2024/02/09 12:47:07;;;;;;;50.77;23.27;;;9.70;99.90;;;;;;4429151;28;658733;-75
2024/02/09 12:49:54;;;;;;;58.13;24.27;;;9.70;99.90;;;;;;4411955;28;659460;-75
2024/02/09 12:52:43;;;;;;;50.67;24.53;;;9.70;99.90;;;;;;4441074;28;658114;-75
2024/02/09 12:55:32;;;;;;;51.23;23.97;;;9.60;99.90;;;;;;4422739;28;659133;-75
2024/02/09 12:58:21;;;;;;;54.07;24.83;;;9.60;99.90;;;;;;4413877;28;659579;-74
2024/02/09 13:01:08;;;;;;;50.80;23.87;;;9.60;99.90;;;;;;4405402;28;658678;-75
2024/02/09 13:03:55;;;;;;;51.63;23.10;;;9.50;99.90;;;;;;4430401;28;659316;-75
2024/02/09 13:06:42;;;;;;;54.90;23.40;;;9.50;99.90;;;;;;4418156;28;659107;-75
2024/02/09 13:09:30;;;;;;;53.93;24.10;;;9.30;99.90;;;;;;4441672;28;658810;-74
2024/02/09 13:12:17;;;;;;;59.27;26.33;;;9.20;99.90;;;;;;4436158;28;658940;-74
2024/02/09 13:15:08;;;;;;;57.07;24.93;;;9.10;99.90;;;;;;4395859;28;658855;-74
2024/02/09 13:17:55;;;;;;;69.57;29.57;;;9.10;99.90;;;;;;4411983;28;659650;-73
2024/02/09 13:20:45;;;;;;;67.50;27.93;;;9.10;99.90;;;;;;4428945;28;658662;-73
2024/02/09 13:23:34;;;;;;;63.80;28.13;;;9.00;99.90;;;;;;4430230;28;659080;-73
2024/02/09 13:26:21;;;;;;;65.60;29.13;;;9.00;99.90;;;;;;4437822;28;658402;-73
2024/02/09 13:29:09;;;;;;;69.73;29.33;;;9.10;99.90;;;;;;4412816;28;659260;-73
2024/02/09 13:31:59;;;;;;;74.37;32.37;;;9.10;99.90;;;;;;4432888;28;659189;-73
2024/02/09 13:34:46;;;;;;;77.33;34.47;;;9.00;99.90;;;;;;4409996;28;659340;-73
2024/02/09 13:37:33;;;;;;;86.10;35.40;;;9.10;99.90;;;;;;4419719;28;658572;-73
2024/02/09 13:40:20;;;;;;;75.40;33.97;;;9.30;99.90;;;;;;4436735;28;660375;-74
2024/02/09 13:43:09;;;;;;;90.88;39.67;;;9.40;99.90;;;;;;4409874;28;659550;-73
2024/02/09 13:45:56;;;;;;;96.17;38.50;;;9.20;99.90;;;;;;4433454;28;659196;-74
2024/02/09 13:48:50;;;;;;;92.10;38.00;;;9.10;99.90;;;;;;4419705;28;658355;-74
2024/02/09 13:51:37;;;;;;;85.40;35.80;;;8.90;99.90;;;;;;4413509;28;658581;-74
2024/02/09 13:54:24;;;;;;;84.50;37.47;;;8.90;99.90;;;;;;4410718;28;658555;-74
2024/02/09 13:57:11;;;;;;;71.63;34.83;;;9.00;99.90;;;;;;4435986;28;658545;-74
2024/02/09 13:59:59;;;;;;;81.33;34.40;;;9.00;99.90;;;;;;4411241;28;659011;-74
2024/02/09 14:02:46;;;;;;;75.57;33.67;;;9.00;99.90;;;;;;4445566;28;659876;-74
2024/02/09 14:05:36;;;;;;;76.97;35.77;;;9.00;99.90;;;;;;4411225;28;658748;-74
2024/02/09 14:08:23;;;;;;;79.40;35.27;;;8.90;99.90;;;;;;4412819;28;658462;-74
2024/02/09 14:11:11;;;;;;;75.73;33.97;;;9.00;99.90;;;;;;4414720;28;659712;-74
2024/02/09 14:13:59;;;;;;;73.63;32.73;;;9.00;99.90;;;;;;4409710;28;658808;-74
2024/02/09 14:16:46;;;;;;;84.13;32.83;;;9.10;99.90;;;;;;4421024;28;659292;-74
2024/02/09 14:19:33;;;;;;;83.23;33.17;;;9.10;99.90;;;;;;4395743;28;658966;-74
2024/02/09 14:22:23;;;;;;;81.60;32.63;;;9.10;99.90;;;;;;4419766;28;659692;-74
2024/02/09 14:25:12;;;;;;;82.90;35.53;;;9.00;99.90;;;;;;4410615;28;660036;-74
2024/02/09 14:28:00;;;;;;;68.38;32.30;;;9.00;99.90;;;;;;4408776;28;658549;-74
2024/02/09 14:30:49;;;;;;;68.13;29.70;;;9.00;99.90;;;;;;4420252;28;658835;-74
2024/02/09 14:33:36;;;;;;;60.13;26.50;;;9.00;99.90;;;;;;4429697;28;659144;-74
2024/02/09 14:36:23;;;;;;;61.90;27.73;;;9.00;99.90;;;;;;4402497;28;658786;-74
2024/02/09 14:39:14;;;;;;;70.53;32.97;;;9.00;99.90;;;;;;4430617;28;659654;-74
2024/02/09 14:42:01;;;;;;;87.60;37.83;;;9.00;99.90;;;;;;4420118;28;659259;-74
2024/02/09 14:44:49;;;;;;;68.37;31.40;;;8.90;99.90;;;;;;4415336;28;659070;-74
2024/02/09 14:47:36;;;;;;;69.67;29.30;;;8.90;99.90;;;;;;4434653;28;658790;-74
2024/02/09 14:50:28;;;;;;;65.53;31.30;;;8.80;99.90;;;;;;4417483;28;659333;-74
2024/02/09 14:53:16;;;;;;;70.80;32.40;;;8.60;99.90;;;;;;4392348;28;658762;-74
2024/02/09 14:56:06;;;;;;;68.03;34.03;;;8.50;99.90;;;;;;4409722;28;658298;-74
2024/02/09 14:58:55;;;;;;;72.07;32.93;;;8.40;99.90;;;;;;4401073;28;658905;-74
2024/02/09 15:01:42;;;;;;;73.67;34.57;;;8.40;99.90;;;;;;4428430;28;658883;-74
2024/02/09 15:04:30;;;;;;;71.27;34.07;;;8.30;99.90;;;;;;4437917;28;658643;-74
2024/02/09 15:07:19;;;;;;;78.88;33.95;;;8.30;99.90;;;;;;4421034;28;658506;-74
2024/02/09 15:10:07;;;;;;;83.37;38.93;;;8.20;99.90;;;;;;4437787;28;658597;-74
2024/02/09 15:12:56;;;;;;;78.77;36.63;;;8.20;99.90;;;;;;4409904;28;658805;-74
2024/02/09 15:15:44;;;;;;;79.83;36.03;;;8.00;99.90;;;;;;4418228;28;658797;-74
2024/02/09 15:18:31;;;;;;;85.87;41.33;;;7.90;99.90;;;;;;4427056;28;658586;-74
2024/02/09 15:21:18;;;;;;;97.57;44.77;;;7.90;99.90;;;;;;4415270;28;658729;-74
2024/02/09 15:24:06;;;;;;;105.63;45.23;;;7.80;99.90;;;;;;4414296;28;659796;-74
2024/02/09 15:26:54;;;;;;;101.50;47.17;;;7.80;99.90;;;;;;4410022;28;659585;-74
2024/02/09 15:29:42;;;;;;;96.80;44.47;;;7.90;99.90;;;;;;4433423;28;660183;-74
2024/02/09 15:32:29;;;;;;;104.60;45.27;;;7.70;99.90;;;;;;4424638;28;659659;-74
2024/02/09 15:35:17;;;;;;;103.37;46.20;;;7.60;99.90;;;;;;4431794;28;660128;-74
2024/02/09 15:38:05;;;;;;;109.83;48.03;;;7.50;99.90;;;;;;4401439;28;660259;-74
2024/02/09 15:40:53;;;;;;;104.40;45.47;;;7.50;99.90;;;;;;4412573;28;659580;-75
2024/02/09 15:43:40;;;;;;;114.43;49.90;;;7.50;99.90;;;;;;4441753;28;661090;-75
2024/02/09 15:46:29;;;;;;;104.23;47.23;;;7.40;99.90;;;;;;4420136;28;660161;-75
2024/02/09 15:49:17;;;;;;;112.60;47.90;;;7.20;99.90;;;;;;4438003;28;659949;-75
2024/02/09 15:52:04;;;;;;;110.97;48.40;;;7.20;99.90;;;;;;4408435;28;659861;-75
2024/02/09 15:54:52;;;;;;;273.40;86.80;;;7.20;99.90;;;;;;4437244;28;660435;-74
2024/02/09 15:57:39;;;;;;;429.50;119.00;;;7.00;99.90;;;;;;4406097;28;659684;-75
2024/02/09 16:00:26;;;;;;;266.30;95.97;;;6.90;99.90;;;;;;4434631;28;660603;-75